createdAt,value
2022-09-16T00:01:29.950Z,16.60
2022-09-16T00:03:59.632Z,16.70
2022-09-16T00:06:30.799Z,16.90
2022-09-16T00:09:02.001Z,17.10
2022-09-16T00:11:34.389Z,17.60
2022-09-16T00:14:03.610Z,17.20
2022-09-16T00:16:32.412Z,16.90
2022-09-16T00:19:03.390Z,16.80
2022-09-16T00:21:32.256Z,16.90
2022-09-16T00:24:00.509Z,16.80
2022-09-16T00:26:29.890Z,16.80
2022-09-16T00:28:58.132Z,16.80
2022-09-16T00:31:26.414Z,16.70
2022-09-16T00:33:54.652Z,16.60
2022-09-16T00:36:24.309Z,16.50
2022-09-16T00:38:54.911Z,16.40
2022-09-16T00:41:26.988Z,16.20
2022-09-16T00:43:59.027Z,16.30
2022-09-16T00:46:40.045Z,15.70
2022-09-16T00:49:16.523Z,16.40
2022-09-16T00:51:48.150Z,16.80
2022-09-16T00:54:19.912Z,16.40
2022-09-16T00:56:52.809Z,16.50
2022-09-16T00:59:27.171Z,16.80
2022-09-16T01:04:29.668Z,15.90
2022-09-16T01:06:59.417Z,16.30
2022-09-16T01:09:29.286Z,16.10
2022-09-16T01:11:57.576Z,16.00
2022-09-16T01:14:45.346Z,16.10
2022-09-16T01:17:23.305Z,16.50
2022-09-16T01:20:51.841Z,16.10
2022-09-16T01:24:32.240Z,16.00
2022-09-16T01:27:35.338Z,15.70
2022-09-16T01:30:51.883Z,16.40
2022-09-16T01:33:35.779Z,16.80
2022-09-16T01:36:28.966Z,16.30
2022-09-16T01:39:23.166Z,15.60
2022-09-16T01:42:10.546Z,15.30
2022-09-16T01:44:46.960Z,15.90
2022-09-16T01:47:28.297Z,16.00
2022-09-16T01:50:07.385Z,16.20
2022-09-16T01:52:44.431Z,16.00
2022-09-16T01:55:22.192Z,16.10
2022-09-16T01:57:56.472Z,16.70
2022-09-16T02:00:25.029Z,16.40
2022-09-16T02:02:59.724Z,16.60
2022-09-16T02:05:34.395Z,16.40
2022-09-16T02:08:09.632Z,15.80
2022-09-16T02:13:19.411Z,15.80
2022-09-16T02:15:51.093Z,16.10
2022-09-16T02:18:27.404Z,16.20
2022-09-16T02:20:59.165Z,16.40
2022-09-16T02:23:33.393Z,16.50
2022-09-16T02:26:04.144Z,15.90
2022-09-16T02:28:36.219Z,16.50
2022-09-16T02:31:10.947Z,16.90
2022-09-16T02:33:46.370Z,16.30
2022-09-16T02:36:21.192Z,17.00
2022-09-16T02:38:54.605Z,17.30
2022-09-16T02:41:23.774Z,16.90
2022-09-16T02:43:52.104Z,16.80
2022-09-16T02:46:27.889Z,17.10
2022-09-16T02:49:10.842Z,17.20
2022-09-16T02:51:48.027Z,17.20
2022-09-16T02:54:25.113Z,16.10
2022-09-16T02:56:55.733Z,16.00
2022-09-16T02:59:25.362Z,17.00
2022-09-16T03:01:53.785Z,16.80
2022-09-16T03:04:23.497Z,16.40
2022-09-16T03:06:51.990Z,15.70
2022-09-16T03:09:23.899Z,15.90
2022-09-16T03:12:29.412Z,15.20
2022-09-16T03:15:27.455Z,15.60
2022-09-16T03:18:41.038Z,15.50
2022-09-16T03:21:18.505Z,15.70
2022-09-16T03:23:57.832Z,16.00
2022-09-16T03:26:36.242Z,15.80
2022-09-16T03:29:14.359Z,16.70
2022-09-16T03:31:51.529Z,16.40
2022-09-16T03:34:24.679Z,15.70
2022-09-16T03:36:59.565Z,15.70
2022-09-16T03:39:27.883Z,15.70
2022-09-16T03:42:01.068Z,16.00
2022-09-16T03:44:34.607Z,15.70
2022-09-16T03:47:03.253Z,15.40
2022-09-16T03:49:31.520Z,15.80
2022-09-16T03:52:01.327Z,15.90
2022-09-16T03:54:29.681Z,16.00
2022-09-16T03:56:57.926Z,15.50
2022-09-16T03:59:26.212Z,15.60
2022-09-16T04:01:54.584Z,15.50
2022-09-16T04:04:22.843Z,15.20
2022-09-16T04:06:51.137Z,15.70
2022-09-16T04:09:20.836Z,15.90
2022-09-16T04:11:49.128Z,15.90
2022-09-16T04:14:17.545Z,16.20
2022-09-16T04:16:45.749Z,16.20
2022-09-16T04:19:15.188Z,16.10
2022-09-16T04:21:43.710Z,15.70
2022-09-16T04:24:13.396Z,15.30
2022-09-16T04:26:43.248Z,15.60
2022-09-16T04:29:11.775Z,15.70
2022-09-16T04:31:39.996Z,14.70
2022-09-16T04:34:08.321Z,15.20
2022-09-16T04:36:36.516Z,15.30
2022-09-16T04:39:05.073Z,15.60
2022-09-16T04:41:33.789Z,16.00
2022-09-16T04:44:04.125Z,16.20
2022-09-16T04:46:33.555Z,16.20
2022-09-16T04:51:32.300Z,16.20
2022-09-16T04:56:32.965Z,16.30
2022-09-16T04:59:04.909Z,17.30
2022-09-16T05:01:36.281Z,16.80
2022-09-16T05:04:07.852Z,16.20
2022-09-16T05:06:39.500Z,15.90
2022-09-16T05:09:08.397Z,16.10
2022-09-16T05:11:39.439Z,16.00
2022-09-16T05:14:17.926Z,15.50
2022-09-16T05:16:46.909Z,15.80
2022-09-16T05:19:16.473Z,15.50
2022-09-16T05:21:44.955Z,15.20
2022-09-16T05:24:15.162Z,15.90
2022-09-16T05:26:44.902Z,16.80
2022-09-16T05:29:16.938Z,16.20
2022-09-16T05:31:47.430Z,15.90
2022-09-16T05:34:18.528Z,16.40
2022-09-16T05:36:48.872Z,16.30
2022-09-16T05:39:23.307Z,16.00
2022-09-16T05:41:56.558Z,15.70
2022-09-16T05:44:27.343Z,16.20
2022-09-16T05:46:56.289Z,17.00
2022-09-16T05:49:24.785Z,16.90
2022-09-16T05:51:54.194Z,17.10
2022-09-16T05:54:25.239Z,16.20
2022-09-16T05:56:53.787Z,15.90
2022-09-16T05:59:23.559Z,16.20
2022-09-16T06:01:53.430Z,16.40
2022-09-16T06:04:21.737Z,16.00
2022-09-16T06:06:49.972Z,16.10
2022-09-16T06:09:20.568Z,16.40
2022-09-16T06:11:50.618Z,15.90
2022-09-16T06:14:22.661Z,15.60
2022-09-16T06:16:52.290Z,16.00
2022-09-16T06:19:20.663Z,16.80
2022-09-16T06:21:49.755Z,16.10
2022-09-16T06:24:20.159Z,16.20
2022-09-16T06:26:49.463Z,15.80
2022-09-16T06:29:18.794Z,16.50
2022-09-16T06:31:47.043Z,16.10
2022-09-16T06:34:19.423Z,16.50
2022-09-16T06:36:48.328Z,16.90
2022-09-16T06:39:18.324Z,16.30
2022-09-16T06:41:46.879Z,16.50
2022-09-16T06:44:15.367Z,16.00
2022-09-16T06:46:44.262Z,16.50
2022-09-16T06:49:13.159Z,16.50
2022-09-16T06:51:43.638Z,16.40
2022-09-16T06:54:12.759Z,16.90
2022-09-16T06:56:41.641Z,17.70
2022-09-16T06:59:11.065Z,17.20
2022-09-16T07:01:39.436Z,17.30
2022-09-16T07:04:13.182Z,16.90
2022-09-16T07:07:08.014Z,17.50
2022-09-16T07:09:32.503Z,16.80
2022-09-16T07:12:01.197Z,17.20
2022-09-16T07:31:54.314Z,18.80
2022-09-16T07:34:22.554Z,19.20
2022-09-16T07:36:51.929Z,18.60
2022-09-16T07:39:22.360Z,19.10
2022-09-16T07:41:50.682Z,19.60
2022-09-16T07:44:21.600Z,19.20
2022-09-16T07:46:51.489Z,19.30
2022-09-16T07:49:20.215Z,19.30
2022-09-16T07:51:49.136Z,19.20
2022-09-16T07:54:19.877Z,19.70
2022-09-16T07:56:49.557Z,19.50
2022-09-16T07:59:20.512Z,19.60
2022-09-16T08:01:50.853Z,20.40
2022-09-16T08:04:21.180Z,21.00
2022-09-16T08:06:49.897Z,20.20
2022-09-16T08:12:10.867Z,20.20
2022-09-16T08:14:39.475Z,19.90
2022-09-16T08:17:08.084Z,20.50
2022-09-16T08:19:38.424Z,20.50
2022-09-16T08:22:06.932Z,20.30
2022-09-16T08:24:35.174Z,20.40
2022-09-16T08:27:03.443Z,20.50
2022-09-16T08:29:33.296Z,20.20
2022-09-16T08:32:01.576Z,19.90
2022-09-16T08:34:29.783Z,20.10
2022-09-16T08:42:30.368Z,19.70
2022-09-16T08:45:11.201Z,19.40
2022-09-16T08:47:54.638Z,19.50
2022-09-16T08:50:29.592Z,19.90
2022-09-16T08:53:00.969Z,20.10
2022-09-16T08:55:33.962Z,20.20
2022-09-16T08:58:06.031Z,20.20
2022-09-16T09:00:35.808Z,20.30
2022-09-16T09:03:18.291Z,20.30
2022-09-16T09:05:53.675Z,20.30
2022-09-16T09:08:34.121Z,20.40
2022-09-16T09:11:11.572Z,20.50
2022-09-16T09:13:56.057Z,20.50
2022-09-16T09:16:38.769Z,19.80
2022-09-16T09:19:23.912Z,20.50
2022-09-16T09:24:59.260Z,19.70
2022-09-16T09:27:32.702Z,20.80
2022-09-16T09:33:04.535Z,20.00
2022-09-16T09:35:53.098Z,18.80
2022-09-16T09:38:44.362Z,18.70
2022-09-16T09:41:17.714Z,18.60
2022-09-16T09:43:54.504Z,19.90
2022-09-16T09:46:31.540Z,19.80
2022-09-16T09:49:10.090Z,19.60
2022-09-16T09:51:44.615Z,19.20
2022-09-16T09:54:27.802Z,18.80
2022-09-16T09:57:00.965Z,18.80
2022-09-16T09:59:39.463Z,19.20
2022-09-16T10:02:18.072Z,19.20
2022-09-16T10:04:48.260Z,19.70
2022-09-16T10:07:21.115Z,19.80
2022-09-16T10:09:56.620Z,19.80
2022-09-16T10:12:31.642Z,20.10
2022-09-16T10:17:32.367Z,20.60
2022-09-16T10:20:06.080Z,20.60
2022-09-16T10:22:36.335Z,20.20
2022-09-16T10:25:08.134Z,20.30
2022-09-16T10:27:39.127Z,19.80
2022-09-16T10:30:15.207Z,20.20
2022-09-16T10:32:55.250Z,20.40
2022-09-16T10:35:27.682Z,20.50
2022-09-16T10:37:58.643Z,20.30
2022-09-16T10:40:28.126Z,20.30
2022-09-16T10:43:02.899Z,20.80
2022-09-16T10:45:35.289Z,20.30
2022-09-16T10:48:08.320Z,19.80
2022-09-16T10:50:37.943Z,19.20
2022-09-16T10:53:24.519Z,18.80
2022-09-16T10:55:59.882Z,19.20
2022-09-16T10:58:28.406Z,19.00
2022-09-16T11:01:19.716Z,18.80
2022-09-16T11:04:20.230Z,19.00
2022-09-16T11:07:07.879Z,18.50
2022-09-16T11:09:46.701Z,18.80
2022-09-16T11:12:51.553Z,19.30
2022-09-16T11:15:35.650Z,19.60
2022-09-16T11:18:21.680Z,19.10
2022-09-16T11:21:21.679Z,18.90
2022-09-16T11:24:21.481Z,18.90
2022-09-16T11:27:00.544Z,18.30
2022-09-16T11:29:58.775Z,16.50
2022-09-16T11:32:44.646Z,16.80
2022-09-16T11:35:45.369Z,16.90
2022-09-16T11:38:25.051Z,18.00
2022-09-16T11:41:14.663Z,18.70
2022-09-16T11:44:00.977Z,19.10
2022-09-16T11:46:39.410Z,19.30
2022-09-16T11:49:34.150Z,19.60
2022-09-16T11:52:26.828Z,19.70
2022-09-16T11:55:28.561Z,19.80
2022-09-16T11:58:03.360Z,19.90
2022-09-16T12:00:35.101Z,20.00
2022-09-16T12:03:11.613Z,20.20
2022-09-16T12:05:50.151Z,19.10
2022-09-16T12:08:24.654Z,19.70
2022-09-16T12:10:56.769Z,19.80
2022-09-16T12:13:31.137Z,19.70
2022-09-16T12:16:05.377Z,18.60
2022-09-16T12:18:42.953Z,18.90
2022-09-16T12:21:17.528Z,18.80
2022-09-16T12:23:51.501Z,18.20
2022-09-16T12:26:22.872Z,18.30
2022-09-16T12:28:58.523Z,18.20
2022-09-16T12:31:34.978Z,18.20
2022-09-16T12:34:11.877Z,18.10
2022-09-16T12:36:44.972Z,18.10
2022-09-16T12:39:13.716Z,18.10
2022-09-16T12:42:10.948Z,18.10
2022-09-16T12:45:14.765Z,17.80
2022-09-16T12:48:29.745Z,17.70
2022-09-16T12:51:28.806Z,18.30
2022-09-16T12:54:32.080Z,18.60
2022-09-16T12:57:37.654Z,18.10
2022-09-16T13:00:22.093Z,18.10
2022-09-16T13:02:55.258Z,18.80
2022-09-16T13:05:33.066Z,18.50
2022-09-16T13:08:06.255Z,17.90
2022-09-16T13:10:55.799Z,17.90
2022-09-16T13:13:34.515Z,17.30
2022-09-16T13:16:07.797Z,17.60
2022-09-16T13:18:46.949Z,18.60
2022-09-16T13:21:27.933Z,18.20
2022-09-16T13:24:07.390Z,17.90
2022-09-16T13:26:44.003Z,18.00
2022-09-16T13:29:44.245Z,18.50
2022-09-16T13:32:40.077Z,18.10
2022-09-16T13:35:35.634Z,18.00
2022-09-16T13:38:24.941Z,18.30
2022-09-16T13:41:01.380Z,17.80
2022-09-16T13:43:37.101Z,17.50
2022-09-16T13:46:10.444Z,17.40
2022-09-16T13:48:50.286Z,18.40
2022-09-16T13:51:21.661Z,18.60
2022-09-16T13:53:53.161Z,18.50
2022-09-16T13:56:43.985Z,18.70
2022-09-16T13:59:29.340Z,18.60
2022-09-16T14:02:16.852Z,19.00
2022-09-16T14:05:10.810Z,18.10
2022-09-16T14:07:49.503Z,17.80
2022-09-16T14:10:26.525Z,17.90
2022-09-16T14:13:13.015Z,17.60
2022-09-16T14:15:45.526Z,18.20
2022-09-16T14:18:17.921Z,17.90
2022-09-16T14:21:01.509Z,17.80
2022-09-16T14:23:31.483Z,18.00
2022-09-16T14:26:10.616Z,18.10
2022-09-16T14:28:39.526Z,18.10
2022-09-16T14:31:13.955Z,18.20
2022-09-16T14:33:45.503Z,17.90
2022-09-16T14:36:20.846Z,18.50
2022-09-16T14:38:58.156Z,18.50
2022-09-16T14:41:33.741Z,18.70
2022-09-16T14:44:11.185Z,18.90
2022-09-16T14:46:45.213Z,18.80
2022-09-16T14:49:14.686Z,18.70
2022-09-16T14:51:49.165Z,18.90
2022-09-16T14:54:19.554Z,18.80
2022-09-16T14:56:59.577Z,19.00
2022-09-16T14:59:32.401Z,18.80
2022-09-16T15:02:07.684Z,18.10
2022-09-16T15:04:40.086Z,17.90
2022-09-16T15:07:15.089Z,18.30
2022-09-16T15:09:48.951Z,19.10
2022-09-16T15:12:26.907Z,18.60
2022-09-16T15:14:55.277Z,19.00
2022-09-16T15:17:28.480Z,18.80
2022-09-16T15:20:00.418Z,18.50
2022-09-16T15:22:30.176Z,18.40
2022-09-16T15:25:00.326Z,18.40
2022-09-16T15:27:32.357Z,18.40
2022-09-16T15:30:05.574Z,18.50
2022-09-16T15:32:43.769Z,18.50
2022-09-16T15:35:23.767Z,18.80
2022-09-16T15:37:54.509Z,18.50
2022-09-16T15:40:40.728Z,18.90
2022-09-16T15:43:19.536Z,18.80
2022-09-16T15:46:00.407Z,18.10
2022-09-16T15:48:35.013Z,18.10
2022-09-16T15:51:09.136Z,18.10
2022-09-16T15:53:44.445Z,17.80
2022-09-16T15:56:25.851Z,17.70
2022-09-16T15:58:59.008Z,18.20
2022-09-16T16:01:52.534Z,17.40
2022-09-16T16:04:28.837Z,17.80
2022-09-16T16:06:59.494Z,18.00
2022-09-16T16:09:37.832Z,17.60
2022-09-16T16:12:10.298Z,17.10
2022-09-16T16:14:40.336Z,17.00
2022-09-16T16:17:14.621Z,17.10
2022-09-16T16:19:44.265Z,16.90
2022-09-16T16:22:12.830Z,17.20
2022-09-16T16:24:42.728Z,17.60
2022-09-16T16:27:11.411Z,17.40
2022-09-16T16:29:39.634Z,17.60
2022-09-16T16:32:11.412Z,17.60
2022-09-16T16:34:41.500Z,18.20
2022-09-16T16:37:27.990Z,18.00
2022-09-16T16:40:01.758Z,17.60
2022-09-16T16:42:30.096Z,17.70
2022-09-16T16:44:58.429Z,17.50
2022-09-16T16:47:26.761Z,17.80
2022-09-16T16:49:54.992Z,17.50
2022-09-16T16:52:23.248Z,17.10
2022-09-16T16:54:51.845Z,17.50
2022-09-16T16:57:21.560Z,17.80
2022-09-16T16:59:49.782Z,17.40
2022-09-16T17:02:18.090Z,17.50
2022-09-16T17:04:46.354Z,17.40
2022-09-16T17:07:25.612Z,17.60
2022-09-16T17:09:54.553Z,17.90
2022-09-16T17:12:24.218Z,18.00
2022-09-16T17:14:52.444Z,17.70
2022-09-16T17:17:20.725Z,17.90
2022-09-16T17:19:49.002Z,17.50
2022-09-16T17:22:17.338Z,17.00
2022-09-16T17:24:45.576Z,17.10
2022-09-16T17:27:15.091Z,17.80
2022-09-16T17:29:44.682Z,17.30
2022-09-16T17:32:12.929Z,17.60
2022-09-16T17:34:41.557Z,17.70
2022-09-16T17:37:09.852Z,16.60
2022-09-16T17:39:38.352Z,16.50
2022-09-16T17:42:07.073Z,16.40
2022-09-16T17:44:35.287Z,16.40
2022-09-16T17:47:04.991Z,16.30
2022-09-16T17:49:33.497Z,16.70
2022-09-16T17:52:01.784Z,16.30
2022-09-16T19:59:25.566Z,15.50
2022-09-16T20:01:53.944Z,15.70
2022-09-16T20:04:22.312Z,15.40
2022-09-16T20:06:50.952Z,15.50
2022-09-16T20:09:19.989Z,15.50
2022-09-16T20:11:49.746Z,15.50
2022-09-16T20:14:21.275Z,15.40
2022-09-16T20:16:52.251Z,15.00
2022-09-16T20:19:22.243Z,15.10
2022-09-16T20:21:50.660Z,15.50
2022-09-16T20:24:21.562Z,15.50
2022-09-16T20:26:51.170Z,15.30
2022-09-16T20:29:20.829Z,14.90
2022-09-16T20:31:52.618Z,14.60
2022-09-16T20:34:24.143Z,15.20
2022-09-16T20:36:52.879Z,15.80
2022-09-16T20:39:22.213Z,15.10
2022-09-16T20:41:52.690Z,15.20
2022-09-16T20:44:21.111Z,14.90
2022-09-16T20:46:50.134Z,15.40
2022-09-16T20:49:23.023Z,15.20
2022-09-16T20:51:51.849Z,14.90
2022-09-16T20:54:20.085Z,14.90
2022-09-16T20:56:49.602Z,14.60
2022-09-16T20:59:20.030Z,15.30
2022-09-16T21:01:49.871Z,14.60
2022-09-16T21:04:21.752Z,14.50
2022-09-16T21:06:50.144Z,14.70
2022-09-16T21:09:19.463Z,14.80
2022-09-16T21:11:49.578Z,14.70
2022-09-16T21:14:21.546Z,15.20
2022-09-16T21:16:51.655Z,15.10
2022-09-16T21:19:21.312Z,14.90
2022-09-16T21:21:49.544Z,14.50
2022-09-16T21:24:18.792Z,14.20
2022-09-16T21:26:47.436Z,14.60
2022-09-16T21:29:21.143Z,14.30
2022-09-16T21:31:50.230Z,15.10
2022-09-16T21:34:22.708Z,15.10
2022-09-16T21:36:51.953Z,14.70
2022-09-16T21:39:21.884Z,15.20
2022-09-16T21:41:50.263Z,15.40
2022-09-16T21:44:19.209Z,14.80
2022-09-16T21:46:49.616Z,15.20
2022-09-16T21:49:24.161Z,15.20
2022-09-16T21:51:56.349Z,15.40
2022-09-16T21:54:25.732Z,15.30
2022-09-16T21:56:54.346Z,15.20
2022-09-16T21:59:23.617Z,14.50
2022-09-16T22:01:52.908Z,14.90
2022-09-16T22:04:23.256Z,15.10
2022-09-16T22:06:55.581Z,15.00
2022-09-16T22:09:24.369Z,15.70
2022-09-16T22:11:52.739Z,15.20
2022-09-16T22:14:21.060Z,14.50
2022-09-16T22:16:49.394Z,14.60
2022-09-16T22:19:19.636Z,14.70
2022-09-16T22:21:50.277Z,14.60
2022-09-16T22:24:21.509Z,15.10
2022-09-16T22:26:51.615Z,14.80
2022-09-16T22:29:20.090Z,14.70
2022-09-16T22:31:48.686Z,14.50
2022-09-16T22:34:17.069Z,14.70
2022-09-16T22:36:45.556Z,14.60
2022-09-16T22:39:16.847Z,14.80
2022-09-16T22:41:47.125Z,14.70
2022-09-16T22:44:15.526Z,14.40
2022-09-16T22:46:46.369Z,14.90
2022-09-16T22:49:16.120Z,14.90
2022-09-16T22:51:44.828Z,14.70
2022-09-16T22:54:14.634Z,14.60
2022-09-16T22:56:45.209Z,14.60
2022-09-16T22:59:18.723Z,14.70
2022-09-16T23:01:47.365Z,14.70
2022-09-16T23:04:16.017Z,14.70
2022-09-16T23:06:44.436Z,14.60
2022-09-16T23:09:14.301Z,15.30
2022-09-16T23:11:43.142Z,15.10
2022-09-16T23:14:15.651Z,15.20
2022-09-16T23:16:44.079Z,14.70
2022-09-16T23:19:13.176Z,15.10
2022-09-16T23:21:42.279Z,15.20
2022-09-16T23:24:16.148Z,14.80
2022-09-16T23:26:44.858Z,14.30
2022-09-16T23:29:16.376Z,13.90
2022-09-16T23:31:45.929Z,14.20
2022-09-16T23:34:19.027Z,13.90
2022-09-16T23:36:48.157Z,14.50
2022-09-16T23:39:17.765Z,14.70
2022-09-16T23:41:46.651Z,14.70
2022-09-16T23:44:17.154Z,14.70
2022-09-16T23:46:45.857Z,14.70
2022-09-16T23:49:16.957Z,14.30
2022-09-16T23:51:45.312Z,14.30
2022-09-16T23:54:13.934Z,14.60
2022-09-16T23:56:43.489Z,14.70
2022-09-16T23:59:11.912Z,14.70
